sensor_id;sensor_type;location;lat;lon;timestamp;P1;durP1;ratioP1;P2;durP2;ratioP2
19179;SDS011;9722;48.754;8.868;2022-07-29T00:00:14;3.90;;;3.60;;
19179;SDS011;9722;48.754;8.868;2022-07-29T00:03:35;3.40;;;3.00;;
19179;SDS011;9722;48.754;8.868;2022-07-29T00:06:56;3.10;;;2.90;;
19179;SDS011;9722;48.754;8.868;2022-07-29T00:10:16;3.70;;;3.40;;
19179;SDS011;9722;48.754;8.868;2022-07-29T00:13:37;3.70;;;3.40;;
19179;SDS011;9722;48.754;8.868;2022-07-29T00:16:57;3.67;;;3.13;;
19179;SDS011;9722;48.754;8.868;2022-07-29T00:20:18;3.60;;;3.40;;
19179;SDS011;9722;48.754;8.868;2022-07-29T00:23:38;3.80;;;3.50;;
19179;SDS011;9722;48.754;8.868;2022-07-29T00:26:59;3.27;;;2.97;;
19179;SDS011;9722;48.754;8.868;2022-07-29T00:30:20;3.10;;;2.93;;
19179;SDS011;9722;48.754;8.868;2022-07-29T00:33:40;3.40;;;3.20;;
19179;SDS011;9722;48.754;8.868;2022-07-29T00:37:01;3.40;;;3.20;;
19179;SDS011;9722;48.754;8.868;2022-07-29T00:40:21;3.80;;;3.53;;
19179;SDS011;9722;48.754;8.868;2022-07-29T00:43:42;3.57;;;3.27;;
19179;SDS011;9722;48.754;8.868;2022-07-29T00:47:03;4.17;;;3.87;;
19179;SDS011;9722;48.754;8.868;2022-07-29T00:50:25;3.90;;;3.60;;
19179;SDS011;9722;48.754;8.868;2022-07-29T00:53:46;4.40;;;4.10;;
19179;SDS011;9722;48.754;8.868;2022-07-29T00:57:11;3.50;;;3.30;;
19179;SDS011;9722;48.754;8.868;2022-07-29T01:00:31;3.40;;;3.10;;
19179;SDS011;9722;48.754;8.868;2022-07-29T01:03:52;3.80;;;3.50;;
19179;SDS011;9722;48.754;8.868;2022-07-29T01:07:13;3.80;;;3.60;;
19179;SDS011;9722;48.754;8.868;2022-07-29T01:10:33;4.10;;;3.70;;
19179;SDS011;9722;48.754;8.868;2022-07-29T01:13:58;3.77;;;3.47;;
19179;SDS011;9722;48.754;8.868;2022-07-29T01:17:27;3.93;;;3.60;;
19179;SDS011;9722;48.754;8.868;2022-07-29T01:29:06;4.10;;;3.80;;
19179;SDS011;9722;48.754;8.868;2022-07-29T01:32:38;3.53;;;3.23;;
19179;SDS011;9722;48.754;8.868;2022-07-29T01:36:06;4.00;;;3.70;;
19179;SDS011;9722;48.754;8.868;2022-07-29T01:39:32;3.13;;;2.93;;
19179;SDS011;9722;48.754;8.868;2022-07-29T01:42:57;3.47;;;3.27;;
19179;SDS011;9722;48.754;8.868;2022-07-29T01:46:20;3.50;;;3.20;;
19179;SDS011;9722;48.754;8.868;2022-07-29T01:49:47;2.90;;;2.70;;
19179;SDS011;9722;48.754;8.868;2022-07-29T01:53:11;3.40;;;3.20;;
19179;SDS011;9722;48.754;8.868;2022-07-29T01:56:34;3.67;;;3.37;;
19179;SDS011;9722;48.754;8.868;2022-07-29T01:59:58;3.63;;;3.23;;
19179;SDS011;9722;48.754;8.868;2022-07-29T02:03:20;3.90;;;3.60;;
19179;SDS011;9722;48.754;8.868;2022-07-29T02:06:42;3.20;;;3.00;;
19179;SDS011;9722;48.754;8.868;2022-07-29T02:10:04;3.60;;;3.40;;
19179;SDS011;9722;48.754;8.868;2022-07-29T02:13:27;4.07;;;3.20;;
19179;SDS011;9722;48.754;8.868;2022-07-29T02:16:50;3.70;;;3.40;;
19179;SDS011;9722;48.754;8.868;2022-07-29T02:20:13;3.23;;;2.93;;
19179;SDS011;9722;48.754;8.868;2022-07-29T02:23:35;3.43;;;3.23;;
19179;SDS011;9722;48.754;8.868;2022-07-29T02:26:59;4.43;;;4.13;;
19179;SDS011;9722;48.754;8.868;2022-07-29T02:30:21;4.23;;;3.73;;
19179;SDS011;9722;48.754;8.868;2022-07-29T02:33:43;3.80;;;3.50;;
19179;SDS011;9722;48.754;8.868;2022-07-29T02:37:08;3.87;;;3.63;;
19179;SDS011;9722;48.754;8.868;2022-07-29T02:40:30;3.93;;;3.63;;
19179;SDS011;9722;48.754;8.868;2022-07-29T02:43:53;3.33;;;3.13;;
19179;SDS011;9722;48.754;8.868;2022-07-29T02:47:23;4.13;;;3.67;;
19179;SDS011;9722;48.754;8.868;2022-07-29T02:50:51;3.27;;;2.97;;
19179;SDS011;9722;48.754;8.868;2022-07-29T02:54:23;3.87;;;3.57;;
19179;SDS011;9722;48.754;8.868;2022-07-29T02:57:47;3.83;;;3.53;;
19179;SDS011;9722;48.754;8.868;2022-07-29T03:01:14;3.60;;;3.33;;
19179;SDS011;9722;48.754;8.868;2022-07-29T03:04:36;3.50;;;3.30;;
19179;SDS011;9722;48.754;8.868;2022-07-29T03:08:02;3.60;;;3.40;;
19179;SDS011;9722;48.754;8.868;2022-07-29T03:11:24;3.67;;;3.37;;
19179;SDS011;9722;48.754;8.868;2022-07-29T03:14:46;3.73;;;3.53;;
19179;SDS011;9722;48.754;8.868;2022-07-29T03:18:07;3.30;;;3.10;;
19179;SDS011;9722;48.754;8.868;2022-07-29T03:21:28;3.40;;;3.20;;
19179;SDS011;9722;48.754;8.868;2022-07-29T03:24:49;3.73;;;3.43;;
19179;SDS011;9722;48.754;8.868;2022-07-29T03:28:09;4.33;;;3.80;;
19179;SDS011;9722;48.754;8.868;2022-07-29T03:31:30;3.23;;;3.03;;
19179;SDS011;9722;48.754;8.868;2022-07-29T03:34:50;3.70;;;3.50;;
19179;SDS011;9722;48.754;8.868;2022-07-29T03:38:11;3.87;;;3.60;;
19179;SDS011;9722;48.754;8.868;2022-07-29T03:41:32;4.17;;;3.77;;
19179;SDS011;9722;48.754;8.868;2022-07-29T03:44:54;3.83;;;3.57;;
19179;SDS011;9722;48.754;8.868;2022-07-29T03:48:17;3.57;;;3.37;;
19179;SDS011;9722;48.754;8.868;2022-07-29T03:51:41;4.20;;;3.60;;
19179;SDS011;9722;48.754;8.868;2022-07-29T03:55:03;3.60;;;3.40;;
19179;SDS011;9722;48.754;8.868;2022-07-29T03:58:26;3.60;;;3.40;;
19179;SDS011;9722;48.754;8.868;2022-07-29T04:01:47;4.80;;;4.10;;
19179;SDS011;9722;48.754;8.868;2022-07-29T04:05:11;3.77;;;3.57;;
19179;SDS011;9722;48.754;8.868;2022-07-29T04:08:33;4.00;;;3.63;;
19179;SDS011;9722;48.754;8.868;2022-07-29T04:11:54;3.90;;;3.70;;
19179;SDS011;9722;48.754;8.868;2022-07-29T04:15:14;4.53;;;4.23;;
19179;SDS011;9722;48.754;8.868;2022-07-29T04:18:35;4.00;;;3.80;;
19179;SDS011;9722;48.754;8.868;2022-07-29T04:21:56;3.73;;;3.53;;
19179;SDS011;9722;48.754;8.868;2022-07-29T04:25:17;4.37;;;3.97;;
19179;SDS011;9722;48.754;8.868;2022-07-29T04:28:38;4.00;;;3.70;;
19179;SDS011;9722;48.754;8.868;2022-07-29T04:31:59;3.63;;;3.33;;
19179;SDS011;9722;48.754;8.868;2022-07-29T04:35:20;3.87;;;3.63;;
19179;SDS011;9722;48.754;8.868;2022-07-29T04:38:41;4.43;;;4.03;;
19179;SDS011;9722;48.754;8.868;2022-07-29T04:42:01;3.83;;;3.60;;
19179;SDS011;9722;48.754;8.868;2022-07-29T04:45:22;4.60;;;4.23;;
19179;SDS011;9722;48.754;8.868;2022-07-29T04:48:42;4.83;;;4.53;;
19179;SDS011;9722;48.754;8.868;2022-07-29T04:52:06;4.40;;;4.00;;
19179;SDS011;9722;48.754;8.868;2022-07-29T04:55:26;3.87;;;3.67;;
19179;SDS011;9722;48.754;8.868;2022-07-29T04:58:47;3.90;;;3.60;;
19179;SDS011;9722;48.754;8.868;2022-07-29T05:02:07;3.87;;;3.67;;
19179;SDS011;9722;48.754;8.868;2022-07-29T05:05:28;4.57;;;4.17;;
19179;SDS011;9722;48.754;8.868;2022-07-29T05:08:48;4.00;;;3.70;;
19179;SDS011;9722;48.754;8.868;2022-07-29T05:12:09;3.70;;;3.40;;
19179;SDS011;9722;48.754;8.868;2022-07-29T05:15:29;3.37;;;3.17;;
19179;SDS011;9722;48.754;8.868;2022-07-29T05:18:50;3.60;;;3.40;;
19179;SDS011;9722;48.754;8.868;2022-07-29T05:22:10;3.63;;;3.33;;
19179;SDS011;9722;48.754;8.868;2022-07-29T05:25:31;3.20;;;3.00;;
19179;SDS011;9722;48.754;8.868;2022-07-29T05:28:51;4.97;;;4.00;;
19179;SDS011;9722;48.754;8.868;2022-07-29T05:32:13;3.73;;;3.30;;
19179;SDS011;9722;48.754;8.868;2022-07-29T05:35:34;3.93;;;3.53;;
19179;SDS011;9722;48.754;8.868;2022-07-29T05:38:56;3.27;;;2.97;;
19179;SDS011;9722;48.754;8.868;2022-07-29T05:42:17;3.10;;;2.93;;
19179;SDS011;9722;48.754;8.868;2022-07-29T05:45:38;4.07;;;2.73;;
19179;SDS011;9722;48.754;8.868;2022-07-29T05:48:59;3.10;;;2.90;;
19179;SDS011;9722;48.754;8.868;2022-07-29T05:52:20;4.10;;;3.80;;
19179;SDS011;9722;48.754;8.868;2022-07-29T05:55:41;3.43;;;3.23;;
19179;SDS011;9722;48.754;8.868;2022-07-29T05:59:01;3.00;;;2.80;;
19179;SDS011;9722;48.754;8.868;2022-07-29T06:02:22;3.60;;;3.37;;
19179;SDS011;9722;48.754;8.868;2022-07-29T06:05:42;3.00;;;2.80;;
19179;SDS011;9722;48.754;8.868;2022-07-29T06:09:03;3.40;;;3.20;;
19179;SDS011;9722;48.754;8.868;2022-07-29T06:12:23;3.10;;;2.90;;
19179;SDS011;9722;48.754;8.868;2022-07-29T06:15:44;3.33;;;3.13;;
19179;SDS011;9722;48.754;8.868;2022-07-29T06:19:04;3.63;;;3.03;;
19179;SDS011;9722;48.754;8.868;2022-07-29T06:22:25;2.60;;;2.40;;
19179;SDS011;9722;48.754;8.868;2022-07-29T06:25:46;4.43;;;3.50;;
19179;SDS011;9722;48.754;8.868;2022-07-29T06:29:06;3.27;;;2.97;;
19179;SDS011;9722;48.754;8.868;2022-07-29T06:32:28;3.23;;;3.00;;
19179;SDS011;9722;48.754;8.868;2022-07-29T06:35:48;3.03;;;2.80;;
19179;SDS011;9722;48.754;8.868;2022-07-29T06:39:09;3.30;;;3.10;;
19179;SDS011;9722;48.754;8.868;2022-07-29T06:42:29;3.67;;;3.37;;
19179;SDS011;9722;48.754;8.868;2022-07-29T06:45:50;3.93;;;3.20;;
19179;SDS011;9722;48.754;8.868;2022-07-29T06:49:10;2.83;;;2.63;;
19179;SDS011;9722;48.754;8.868;2022-07-29T06:52:32;4.03;;;3.60;;
19179;SDS011;9722;48.754;8.868;2022-07-29T06:55:52;3.47;;;3.20;;
19179;SDS011;9722;48.754;8.868;2022-07-29T06:59:13;3.10;;;2.80;;
19179;SDS011;9722;48.754;8.868;2022-07-29T07:02:34;2.97;;;2.77;;
19179;SDS011;9722;48.754;8.868;2022-07-29T07:05:54;2.63;;;2.43;;
19179;SDS011;9722;48.754;8.868;2022-07-29T07:09:15;3.30;;;3.10;;
19179;SDS011;9722;48.754;8.868;2022-07-29T07:12:36;3.13;;;2.93;;
19179;SDS011;9722;48.754;8.868;2022-07-29T07:15:56;3.47;;;3.17;;
19179;SDS011;9722;48.754;8.868;2022-07-29T07:19:17;3.10;;;2.70;;
19179;SDS011;9722;48.754;8.868;2022-07-29T07:22:39;3.87;;;2.50;;
19179;SDS011;9722;48.754;8.868;2022-07-29T07:25:59;2.70;;;2.50;;
19179;SDS011;9722;48.754;8.868;2022-07-29T07:29:20;2.90;;;2.67;;
19179;SDS011;9722;48.754;8.868;2022-07-29T07:32:40;4.10;;;3.10;;
19179;SDS011;9722;48.754;8.868;2022-07-29T07:36:01;4.10;;;3.00;;
19179;SDS011;9722;48.754;8.868;2022-07-29T07:39:21;4.53;;;3.03;;
19179;SDS011;9722;48.754;8.868;2022-07-29T07:42:42;3.07;;;2.87;;
19179;SDS011;9722;48.754;8.868;2022-07-29T07:46:02;4.43;;;2.93;;
19179;SDS011;9722;48.754;8.868;2022-07-29T07:49:23;3.10;;;2.80;;
19179;SDS011;9722;48.754;8.868;2022-07-29T07:52:50;4.10;;;2.87;;
19179;SDS011;9722;48.754;8.868;2022-07-29T07:56:12;3.33;;;3.13;;
19179;SDS011;9722;48.754;8.868;2022-07-29T07:59:32;3.00;;;2.67;;
19179;SDS011;9722;48.754;8.868;2022-07-29T08:02:53;3.70;;;2.40;;
19179;SDS011;9722;48.754;8.868;2022-07-29T08:06:13;2.80;;;2.60;;
19179;SDS011;9722;48.754;8.868;2022-07-29T08:09:34;4.27;;;2.53;;
19179;SDS011;9722;48.754;8.868;2022-07-29T08:12:55;2.70;;;2.50;;
19179;SDS011;9722;48.754;8.868;2022-07-29T08:16:16;2.87;;;2.67;;
19179;SDS011;9722;48.754;8.868;2022-07-29T08:19:36;3.13;;;2.63;;
19179;SDS011;9722;48.754;8.868;2022-07-29T08:22:57;3.07;;;2.87;;
19179;SDS011;9722;48.754;8.868;2022-07-29T08:26:20;4.63;;;3.00;;
19179;SDS011;9722;48.754;8.868;2022-07-29T08:29:42;2.73;;;2.53;;
19179;SDS011;9722;48.754;8.868;2022-07-29T08:33:02;5.83;;;3.00;;
19179;SDS011;9722;48.754;8.868;2022-07-29T08:36:23;3.07;;;2.60;;
19179;SDS011;9722;48.754;8.868;2022-07-29T08:39:44;3.67;;;3.37;;
19179;SDS011;9722;48.754;8.868;2022-07-29T08:43:08;3.70;;;3.40;;
19179;SDS011;9722;48.754;8.868;2022-07-29T08:46:29;4.07;;;3.20;;
19179;SDS011;9722;48.754;8.868;2022-07-29T08:49:49;4.47;;;3.23;;
19179;SDS011;9722;48.754;8.868;2022-07-29T08:53:10;2.85;;;2.65;;
19179;SDS011;9722;48.754;8.868;2022-07-29T08:56:32;3.58;;;3.28;;
19179;SDS011;9722;48.754;8.868;2022-07-29T08:59:54;4.10;;;3.25;;
19179;SDS011;9722;48.754;8.868;2022-07-29T09:03:22;3.30;;;3.10;;
19179;SDS011;9722;48.754;8.868;2022-07-29T09:06:45;5.63;;;3.03;;
19179;SDS011;9722;48.754;8.868;2022-07-29T09:10:07;3.13;;;2.92;;
19179;SDS011;9722;48.754;8.868;2022-07-29T09:13:28;3.13;;;2.85;;
19179;SDS011;9722;48.754;8.868;2022-07-29T09:16:55;3.95;;;3.05;;
19179;SDS011;9722;48.754;8.868;2022-07-29T09:20:17;3.23;;;2.93;;
19179;SDS011;9722;48.754;8.868;2022-07-29T09:23:39;3.13;;;2.90;;
19179;SDS011;9722;48.754;8.868;2022-07-29T09:27:01;2.92;;;2.72;;
19179;SDS011;9722;48.754;8.868;2022-07-29T09:30:22;4.72;;;3.25;;
19179;SDS011;9722;48.754;8.868;2022-07-29T09:33:42;2.75;;;2.55;;
19179;SDS011;9722;48.754;8.868;2022-07-29T09:37:03;3.53;;;3.10;;
19179;SDS011;9722;48.754;8.868;2022-07-29T09:40:25;3.43;;;3.03;;
19179;SDS011;9722;48.754;8.868;2022-07-29T09:43:57;3.17;;;2.97;;
19179;SDS011;9722;48.754;8.868;2022-07-29T09:47:18;6.13;;;3.20;;
19179;SDS011;9722;48.754;8.868;2022-07-29T09:50:42;3.33;;;3.10;;
19179;SDS011;9722;48.754;8.868;2022-07-29T09:54:22;3.23;;;2.93;;
19179;SDS011;9722;48.754;8.868;2022-07-29T09:57:44;3.30;;;3.00;;
19179;SDS011;9722;48.754;8.868;2022-07-29T10:01:06;2.60;;;2.50;;
19179;SDS011;9722;48.754;8.868;2022-07-29T10:08:24;3.13;;;2.73;;
19179;SDS011;9722;48.754;8.868;2022-07-29T10:12:01;3.10;;;2.90;;
19179;SDS011;9722;48.754;8.868;2022-07-29T10:15:23;3.37;;;2.87;;
19179;SDS011;9722;48.754;8.868;2022-07-29T10:18:45;3.50;;;3.20;;
19179;SDS011;9722;48.754;8.868;2022-07-29T10:22:07;4.87;;;3.90;;
19179;SDS011;9722;48.754;8.868;2022-07-29T10:25:29;6.10;;;4.30;;
19179;SDS011;9722;48.754;8.868;2022-07-29T10:28:50;7.40;;;5.23;;
19179;SDS011;9722;48.754;8.868;2022-07-29T10:32:14;8.37;;;5.20;;
19179;SDS011;9722;48.754;8.868;2022-07-29T10:39:41;5.87;;;5.30;;
19179;SDS011;9722;48.754;8.868;2022-07-29T10:43:14;7.50;;;6.73;;
19179;SDS011;9722;48.754;8.868;2022-07-29T10:46:39;7.70;;;6.93;;
19179;SDS011;9722;48.754;8.868;2022-07-29T10:50:02;7.87;;;7.27;;
19179;SDS011;9722;48.754;8.868;2022-07-29T10:53:23;7.40;;;6.67;;
19179;SDS011;9722;48.754;8.868;2022-07-29T10:56:44;5.30;;;4.90;;
19179;SDS011;9722;48.754;8.868;2022-07-29T11:03:42;6.03;;;5.50;;
19179;SDS011;9722;48.754;8.868;2022-07-29T11:07:07;4.47;;;4.13;;
19179;SDS011;9722;48.754;8.868;2022-07-29T11:10:28;5.30;;;4.80;;
19179;SDS011;9722;48.754;8.868;2022-07-29T11:13:51;5.17;;;4.67;;
19179;SDS011;9722;48.754;8.868;2022-07-29T11:17:14;5.53;;;4.73;;
19179;SDS011;9722;48.754;8.868;2022-07-29T11:20:45;5.03;;;4.73;;
19179;SDS011;9722;48.754;8.868;2022-07-29T11:24:13;4.17;;;3.87;;
19179;SDS011;9722;48.754;8.868;2022-07-29T11:27:35;4.90;;;4.50;;
19179;SDS011;9722;48.754;8.868;2022-07-29T11:30:59;5.33;;;4.93;;
19179;SDS011;9722;48.754;8.868;2022-07-29T11:34:31;5.20;;;4.90;;
19179;SDS011;9722;48.754;8.868;2022-07-29T11:41:44;4.70;;;4.37;;
19179;SDS011;9722;48.754;8.868;2022-07-29T11:45:05;5.00;;;4.57;;
19179;SDS011;9722;48.754;8.868;2022-07-29T11:48:30;4.63;;;4.40;;
19179;SDS011;9722;48.754;8.868;2022-07-29T11:51:51;4.67;;;4.23;;
19179;SDS011;9722;48.754;8.868;2022-07-29T11:55:20;4.60;;;4.30;;
19179;SDS011;9722;48.754;8.868;2022-07-29T11:58:44;4.33;;;3.93;;
19179;SDS011;9722;48.754;8.868;2022-07-29T12:02:05;4.43;;;4.07;;
19179;SDS011;9722;48.754;8.868;2022-07-29T12:05:32;4.50;;;4.10;;
19179;SDS011;9722;48.754;8.868;2022-07-29T12:09:08;4.13;;;3.77;;
19179;SDS011;9722;48.754;8.868;2022-07-29T12:12:29;4.83;;;4.50;;
19179;SDS011;9722;48.754;8.868;2022-07-29T12:15:53;3.93;;;3.63;;
19179;SDS011;9722;48.754;8.868;2022-07-29T12:19:15;3.70;;;3.50;;
19179;SDS011;9722;48.754;8.868;2022-07-29T12:22:37;4.83;;;3.90;;
19179;SDS011;9722;48.754;8.868;2022-07-29T12:26:00;3.60;;;3.30;;
19179;SDS011;9722;48.754;8.868;2022-07-29T12:29:24;4.93;;;3.50;;
19179;SDS011;9722;48.754;8.868;2022-07-29T12:32:47;4.30;;;3.13;;
19179;SDS011;9722;48.754;8.868;2022-07-29T12:36:08;4.87;;;3.37;;
19179;SDS011;9722;48.754;8.868;2022-07-29T12:39:29;4.10;;;3.70;;
19179;SDS011;9722;48.754;8.868;2022-07-29T12:43:06;4.20;;;3.80;;
19179;SDS011;9722;48.754;8.868;2022-07-29T12:46:31;4.57;;;3.00;;
19179;SDS011;9722;48.754;8.868;2022-07-29T12:50:06;4.23;;;3.73;;
19179;SDS011;9722;48.754;8.868;2022-07-29T12:53:35;5.60;;;3.30;;
19179;SDS011;9722;48.754;8.868;2022-07-29T12:56:59;4.00;;;3.23;;
19179;SDS011;9722;48.754;8.868;2022-07-29T13:00:23;3.63;;;3.43;;
19179;SDS011;9722;48.754;8.868;2022-07-29T13:07:11;3.60;;;2.90;;
19179;SDS011;9722;48.754;8.868;2022-07-29T13:10:35;3.23;;;2.93;;
19179;SDS011;9722;48.754;8.868;2022-07-29T13:13:56;3.20;;;2.93;;
19179;SDS011;9722;48.754;8.868;2022-07-29T13:17:18;3.10;;;2.90;;
19179;SDS011;9722;48.754;8.868;2022-07-29T13:20:42;3.93;;;3.00;;
19179;SDS011;9722;48.754;8.868;2022-07-29T13:24:04;3.53;;;2.80;;
19179;SDS011;9722;48.754;8.868;2022-07-29T13:27:27;2.90;;;2.70;;
19179;SDS011;9722;48.754;8.868;2022-07-29T13:30:52;2.90;;;2.63;;
19179;SDS011;9722;48.754;8.868;2022-07-29T13:34:13;2.87;;;2.67;;
19179;SDS011;9722;48.754;8.868;2022-07-29T13:37:34;2.77;;;2.50;;
19179;SDS011;9722;48.754;8.868;2022-07-29T13:40:58;3.90;;;2.90;;
19179;SDS011;9722;48.754;8.868;2022-07-29T13:44:18;3.03;;;2.83;;
19179;SDS011;9722;48.754;8.868;2022-07-29T13:47:39;4.03;;;3.07;;
19179;SDS011;9722;48.754;8.868;2022-07-29T13:50:59;2.80;;;2.60;;
19179;SDS011;9722;48.754;8.868;2022-07-29T13:54:20;3.30;;;3.10;;
19179;SDS011;9722;48.754;8.868;2022-07-29T13:57:41;3.30;;;3.00;;
19179;SDS011;9722;48.754;8.868;2022-07-29T14:01:02;3.50;;;3.20;;
19179;SDS011;9722;48.754;8.868;2022-07-29T14:04:22;3.10;;;2.90;;
19179;SDS011;9722;48.754;8.868;2022-07-29T14:07:43;3.30;;;3.10;;
19179;SDS011;9722;48.754;8.868;2022-07-29T14:11:03;3.20;;;3.00;;
19179;SDS011;9722;48.754;8.868;2022-07-29T14:14:24;3.00;;;2.80;;
19179;SDS011;9722;48.754;8.868;2022-07-29T14:17:44;3.23;;;3.03;;
19179;SDS011;9722;48.754;8.868;2022-07-29T14:21:05;4.10;;;3.20;;
19179;SDS011;9722;48.754;8.868;2022-07-29T14:24:25;3.40;;;3.03;;
19179;SDS011;9722;48.754;8.868;2022-07-29T14:27:46;3.53;;;3.23;;
19179;SDS011;9722;48.754;8.868;2022-07-29T14:31:06;4.23;;;2.83;;
19179;SDS011;9722;48.754;8.868;2022-07-29T14:34:27;3.20;;;2.97;;
19179;SDS011;9722;48.754;8.868;2022-07-29T14:37:47;3.47;;;3.27;;
19179;SDS011;9722;48.754;8.868;2022-07-29T14:41:09;3.93;;;2.97;;
19179;SDS011;9722;48.754;8.868;2022-07-29T14:44:29;3.17;;;2.97;;
19179;SDS011;9722;48.754;8.868;2022-07-29T14:47:51;4.67;;;3.30;;
19179;SDS011;9722;48.754;8.868;2022-07-29T14:51:11;3.67;;;3.37;;
19179;SDS011;9722;48.754;8.868;2022-07-29T14:54:32;3.07;;;2.87;;
19179;SDS011;9722;48.754;8.868;2022-07-29T14:57:52;3.73;;;3.37;;
19179;SDS011;9722;48.754;8.868;2022-07-29T15:01:13;3.67;;;3.47;;
19179;SDS011;9722;48.754;8.868;2022-07-29T15:04:34;3.50;;;3.27;;
19179;SDS011;9722;48.754;8.868;2022-07-29T15:07:54;3.70;;;3.40;;
19179;SDS011;9722;48.754;8.868;2022-07-29T15:11:15;3.47;;;3.20;;
19179;SDS011;9722;48.754;8.868;2022-07-29T15:14:35;3.30;;;3.00;;
19179;SDS011;9722;48.754;8.868;2022-07-29T15:17:56;3.50;;;3.20;;
19179;SDS011;9722;48.754;8.868;2022-07-29T15:21:16;4.33;;;3.70;;
19179;SDS011;9722;48.754;8.868;2022-07-29T15:24:37;3.80;;;3.50;;
19179;SDS011;9722;48.754;8.868;2022-07-29T15:27:58;3.83;;;3.53;;
19179;SDS011;9722;48.754;8.868;2022-07-29T15:31:22;3.73;;;2.10;;
19179;SDS011;9722;48.754;8.868;2022-07-29T15:34:42;3.20;;;2.90;;
19179;SDS011;9722;48.754;8.868;2022-07-29T15:38:03;3.53;;;2.40;;
19179;SDS011;9722;48.754;8.868;2022-07-29T15:41:24;3.27;;;2.60;;
19179;SDS011;9722;48.754;8.868;2022-07-29T15:44:44;3.37;;;2.70;;
19179;SDS011;9722;48.754;8.868;2022-07-29T15:48:05;3.23;;;3.03;;
19179;SDS011;9722;48.754;8.868;2022-07-29T15:51:26;3.63;;;3.33;;
19179;SDS011;9722;48.754;8.868;2022-07-29T15:54:47;4.83;;;3.83;;
19179;SDS011;9722;48.754;8.868;2022-07-29T15:58:08;3.10;;;2.90;;
19179;SDS011;9722;48.754;8.868;2022-07-29T16:01:28;3.30;;;3.10;;
19179;SDS011;9722;48.754;8.868;2022-07-29T16:04:49;3.50;;;3.03;;
19179;SDS011;9722;48.754;8.868;2022-07-29T16:08:09;3.37;;;3.17;;
19179;SDS011;9722;48.754;8.868;2022-07-29T16:11:30;3.60;;;3.30;;
19179;SDS011;9722;48.754;8.868;2022-07-29T16:14:50;4.83;;;3.30;;
19179;SDS011;9722;48.754;8.868;2022-07-29T16:18:11;3.37;;;2.67;;
19179;SDS011;9722;48.754;8.868;2022-07-29T16:21:32;2.00;;;1.90;;
19179;SDS011;9722;48.754;8.868;2022-07-29T16:24:54;2.50;;;2.17;;
19179;SDS011;9722;48.754;8.868;2022-07-29T16:28:14;2.40;;;2.20;;
19179;SDS011;9722;48.754;8.868;2022-07-29T16:31:36;3.97;;;2.97;;
19179;SDS011;9722;48.754;8.868;2022-07-29T16:34:56;4.03;;;3.57;;
19179;SDS011;9722;48.754;8.868;2022-07-29T16:38:17;3.50;;;3.20;;
19179;SDS011;9722;48.754;8.868;2022-07-29T16:41:38;3.50;;;3.20;;
19179;SDS011;9722;48.754;8.868;2022-07-29T16:44:58;3.90;;;3.30;;
19179;SDS011;9722;48.754;8.868;2022-07-29T16:48:19;4.33;;;2.10;;
19179;SDS011;9722;48.754;8.868;2022-07-29T16:51:40;3.80;;;1.90;;
19179;SDS011;9722;48.754;8.868;2022-07-29T16:55:00;1.70;;;1.60;;
19179;SDS011;9722;48.754;8.868;2022-07-29T16:58:21;2.63;;;1.67;;
19179;SDS011;9722;48.754;8.868;2022-07-29T17:01:41;3.63;;;1.50;;
19179;SDS011;9722;48.754;8.868;2022-07-29T17:05:02;2.53;;;1.60;;
19179;SDS011;9722;48.754;8.868;2022-07-29T17:08:22;2.53;;;2.00;;
19179;SDS011;9722;48.754;8.868;2022-07-29T17:11:43;2.50;;;1.70;;
19179;SDS011;9722;48.754;8.868;2022-07-29T17:15:04;3.83;;;1.57;;
19179;SDS011;9722;48.754;8.868;2022-07-29T17:18:26;1.90;;;1.70;;
19179;SDS011;9722;48.754;8.868;2022-07-29T17:21:47;2.37;;;1.73;;
19179;SDS011;9722;48.754;8.868;2022-07-29T17:25:08;2.27;;;2.03;;
19179;SDS011;9722;48.754;8.868;2022-07-29T17:28:29;1.83;;;1.73;;
19179;SDS011;9722;48.754;8.868;2022-07-29T17:31:49;3.67;;;1.60;;
19179;SDS011;9722;48.754;8.868;2022-07-29T17:35:10;1.80;;;1.57;;
19179;SDS011;9722;48.754;8.868;2022-07-29T17:38:50;5.17;;;1.70;;
19179;SDS011;9722;48.754;8.868;2022-07-29T17:42:12;4.30;;;1.80;;
19179;SDS011;9722;48.754;8.868;2022-07-29T17:45:33;1.77;;;1.67;;
19179;SDS011;9722;48.754;8.868;2022-07-29T17:48:54;2.93;;;1.70;;
19179;SDS011;9722;48.754;8.868;2022-07-29T17:52:15;1.70;;;1.60;;
19179;SDS011;9722;48.754;8.868;2022-07-29T17:55:37;1.77;;;1.60;;
19179;SDS011;9722;48.754;8.868;2022-07-29T17:58:58;3.37;;;1.70;;
19179;SDS011;9722;48.754;8.868;2022-07-29T18:02:20;2.83;;;1.50;;
19179;SDS011;9722;48.754;8.868;2022-07-29T18:05:40;1.60;;;1.50;;
19179;SDS011;9722;48.754;8.868;2022-07-29T18:09:02;3.53;;;1.40;;
19179;SDS011;9722;48.754;8.868;2022-07-29T18:12:22;2.00;;;1.80;;
19179;SDS011;9722;48.754;8.868;2022-07-29T18:15:44;1.70;;;1.60;;
19179;SDS011;9722;48.754;8.868;2022-07-29T18:19:05;2.97;;;2.00;;
19179;SDS011;9722;48.754;8.868;2022-07-29T18:22:25;2.07;;;1.50;;
19179;SDS011;9722;48.754;8.868;2022-07-29T18:25:46;2.57;;;1.40;;
19179;SDS011;9722;48.754;8.868;2022-07-29T18:29:06;2.00;;;1.70;;
19179;SDS011;9722;48.754;8.868;2022-07-29T18:32:27;2.67;;;1.40;;
19179;SDS011;9722;48.754;8.868;2022-07-29T18:35:49;4.43;;;1.67;;
19179;SDS011;9722;48.754;8.868;2022-07-29T18:39:10;1.80;;;1.70;;
19179;SDS011;9722;48.754;8.868;2022-07-29T18:42:31;1.87;;;1.77;;
19179;SDS011;9722;48.754;8.868;2022-07-29T18:45:51;1.77;;;1.50;;
19179;SDS011;9722;48.754;8.868;2022-07-29T18:49:12;2.70;;;1.57;;
19179;SDS011;9722;48.754;8.868;2022-07-29T18:52:33;2.60;;;1.57;;
19179;SDS011;9722;48.754;8.868;2022-07-29T18:55:53;1.80;;;1.40;;
19179;SDS011;9722;48.754;8.868;2022-07-29T18:59:16;1.40;;;1.30;;
19179;SDS011;9722;48.754;8.868;2022-07-29T19:02:39;2.63;;;1.67;;
19179;SDS011;9722;48.754;8.868;2022-07-29T19:05:59;2.80;;;1.50;;
19179;SDS011;9722;48.754;8.868;2022-07-29T19:09:20;1.47;;;1.37;;
19179;SDS011;9722;48.754;8.868;2022-07-29T19:12:40;2.17;;;1.43;;
19179;SDS011;9722;48.754;8.868;2022-07-29T19:16:01;2.63;;;1.63;;
19179;SDS011;9722;48.754;8.868;2022-07-29T19:19:21;1.87;;;1.47;;
19179;SDS011;9722;48.754;8.868;2022-07-29T19:22:42;1.70;;;1.60;;
19179;SDS011;9722;48.754;8.868;2022-07-29T19:26:03;2.80;;;2.10;;
19179;SDS011;9722;48.754;8.868;2022-07-29T19:29:23;2.20;;;2.00;;
19179;SDS011;9722;48.754;8.868;2022-07-29T19:32:45;2.10;;;1.90;;
19179;SDS011;9722;48.754;8.868;2022-07-29T19:36:05;4.00;;;1.93;;
19179;SDS011;9722;48.754;8.868;2022-07-29T19:39:26;3.87;;;1.70;;
19179;SDS011;9722;48.754;8.868;2022-07-29T19:42:46;2.40;;;2.20;;
19179;SDS011;9722;48.754;8.868;2022-07-29T19:46:09;2.33;;;1.90;;
19179;SDS011;9722;48.754;8.868;2022-07-29T19:49:30;2.30;;;2.10;;
19179;SDS011;9722;48.754;8.868;2022-07-29T19:52:56;2.13;;;1.97;;
19179;SDS011;9722;48.754;8.868;2022-07-29T19:56:16;1.60;;;1.50;;
19179;SDS011;9722;48.754;8.868;2022-07-29T19:59:37;2.57;;;2.07;;
19179;SDS011;9722;48.754;8.868;2022-07-29T20:02:57;3.93;;;2.00;;
19179;SDS011;9722;48.754;8.868;2022-07-29T20:06:18;2.00;;;1.80;;
19179;SDS011;9722;48.754;8.868;2022-07-29T20:09:39;2.10;;;2.00;;
19179;SDS011;9722;48.754;8.868;2022-07-29T20:13:00;3.03;;;2.40;;
19179;SDS011;9722;48.754;8.868;2022-07-29T20:16:20;2.47;;;2.13;;
19179;SDS011;9722;48.754;8.868;2022-07-29T20:19:41;2.40;;;1.90;;
19179;SDS011;9722;48.754;8.868;2022-07-29T20:23:02;3.17;;;2.00;;
19179;SDS011;9722;48.754;8.868;2022-07-29T20:26:23;2.37;;;2.17;;
19179;SDS011;9722;48.754;8.868;2022-07-29T20:29:43;2.00;;;1.90;;
19179;SDS011;9722;48.754;8.868;2022-07-29T20:33:04;5.53;;;2.00;;
19179;SDS011;9722;48.754;8.868;2022-07-29T20:36:24;3.80;;;1.83;;
19179;SDS011;9722;48.754;8.868;2022-07-29T20:39:45;1.90;;;1.80;;
19179;SDS011;9722;48.754;8.868;2022-07-29T20:43:06;2.30;;;2.07;;
19179;SDS011;9722;48.754;8.868;2022-07-29T20:46:28;2.73;;;1.60;;
19179;SDS011;9722;48.754;8.868;2022-07-29T20:49:48;3.40;;;1.60;;
19179;SDS011;9722;48.754;8.868;2022-07-29T20:53:09;1.83;;;1.60;;
19179;SDS011;9722;48.754;8.868;2022-07-29T20:56:30;2.03;;;1.50;;
19179;SDS011;9722;48.754;8.868;2022-07-29T20:59:50;2.70;;;1.50;;